createdAt,value
2022-09-21T00:00:49.837Z,16.50
2022-09-21T00:01:53.460Z,17.83
2022-09-21T00:02:58.376Z,14.10
2022-09-21T00:04:02.318Z,13.73
2022-09-21T00:05:04.544Z,34.78
2022-09-21T00:06:08.677Z,15.50
2022-09-21T00:07:10.355Z,18.48
2022-09-21T00:08:14.450Z,19.00
2022-09-21T00:09:16.556Z,15.13
2022-09-21T00:10:20.142Z,17.55
2022-09-21T00:11:27.980Z,15.25
2022-09-21T00:12:31.783Z,16.02
2022-09-21T00:13:35.826Z,15.95
2022-09-21T00:14:37.582Z,18.40
2022-09-21T00:15:40.605Z,14.40
2022-09-21T00:16:44.489Z,15.80
2022-09-21T00:17:48.058Z,15.77
2022-09-21T00:18:50.264Z,14.20
2022-09-21T00:19:53.102Z,16.77
2022-09-21T00:20:54.759Z,20.08
2022-09-21T00:21:57.512Z,15.80
2022-09-21T00:22:59.113Z,21.13
2022-09-21T00:24:02.575Z,18.63
2022-09-21T00:25:04.949Z,17.08
2022-09-21T00:26:17.674Z,17.75
2022-09-21T00:27:19.893Z,17.52
2022-09-21T00:28:21.761Z,20.98
2022-09-21T00:29:24.037Z,15.98
2022-09-21T00:30:25.865Z,18.08
2022-09-21T00:31:28.690Z,17.50
2022-09-21T00:32:32.437Z,17.13
2022-09-21T00:33:34.668Z,16.17
2022-09-21T00:34:37.454Z,17.30
2022-09-21T00:35:43.733Z,18.58
2022-09-21T00:36:45.878Z,16.33
2022-09-21T00:37:47.527Z,22.10
2022-09-21T00:38:55.180Z,15.20
2022-09-21T00:39:57.276Z,16.50
2022-09-21T00:40:59.333Z,17.00
2022-09-21T00:42:01.016Z,18.02
2022-09-21T00:43:13.929Z,14.15
2022-09-21T00:44:18.700Z,17.30
2022-09-21T00:45:23.643Z,16.20
2022-09-21T00:46:31.531Z,16.17
2022-09-21T00:47:35.171Z,13.85
2022-09-21T00:48:36.996Z,17.13
2022-09-21T00:49:40.309Z,20.33
2022-09-21T00:50:49.169Z,16.60
2022-09-21T00:51:53.133Z,15.65
2022-09-21T00:52:57.892Z,15.88
2022-09-21T00:54:04.993Z,18.50
2022-09-21T00:55:24.402Z,17.50
2022-09-21T00:56:26.590Z,17.80
2022-09-21T00:57:31.358Z,16.35
2022-09-21T00:58:43.278Z,17.17
2022-09-21T00:59:45.800Z,16.33
2022-09-21T01:00:47.571Z,23.73
2022-09-21T01:01:49.652Z,17.42
2022-09-21T01:02:51.736Z,12.90
2022-09-21T01:03:57.247Z,17.25
2022-09-21T01:04:59.461Z,14.40
2022-09-21T01:06:01.327Z,18.48
2022-09-21T01:07:12.712Z,14.18
2022-09-21T01:08:16.299Z,14.77
2022-09-21T01:09:18.919Z,14.93
2022-09-21T01:10:21.403Z,16.08
2022-09-21T01:11:34.309Z,15.52
2022-09-21T01:12:38.907Z,22.48
2022-09-21T01:14:07.354Z,13.77
2022-09-21T01:15:18.664Z,15.40
2022-09-21T01:16:44.357Z,15.82
2022-09-21T01:18:06.814Z,18.38
2022-09-21T01:19:42.695Z,20.33
2022-09-21T01:21:23.572Z,16.70
2022-09-21T01:23:04.182Z,24.23
2022-09-21T01:24:21.431Z,19.75
2022-09-21T01:26:03.505Z,20.98
2022-09-21T01:27:41.903Z,15.13
2022-09-21T01:29:09.806Z,21.92
2022-09-21T01:30:20.176Z,19.52
2022-09-21T01:31:28.959Z,21.77
2022-09-21T01:32:50.186Z,18.75
2022-09-21T01:33:58.119Z,16.13
2022-09-21T01:35:10.113Z,20.73
2022-09-21T01:36:17.470Z,15.38
2022-09-21T01:37:26.846Z,14.50
2022-09-21T01:38:35.371Z,17.50
2022-09-21T01:39:44.942Z,15.60
2022-09-21T01:40:52.589Z,16.23
2022-09-21T01:41:56.196Z,16.42
2022-09-21T01:43:01.205Z,14.73
2022-09-21T01:44:21.858Z,22.50
2022-09-21T01:45:48.134Z,17.85
2022-09-21T01:46:51.570Z,19.90
2022-09-21T01:47:56.103Z,15.60
2022-09-21T01:49:04.781Z,19.23
2022-09-21T01:50:09.285Z,19.70
2022-09-21T01:51:15.417Z,19.60
2022-09-21T01:52:28.873Z,26.60
2022-09-21T01:53:45.044Z,17.13
2022-09-21T01:54:52.634Z,15.35
2022-09-21T01:56:03.164Z,17.20
2022-09-21T01:57:16.853Z,16.85
2022-09-21T01:58:26.968Z,15.43
2022-09-21T01:59:40.065Z,14.18
2022-09-21T02:00:46.151Z,18.58
2022-09-21T02:01:53.644Z,15.13
2022-09-21T02:03:04.105Z,16.00
2022-09-21T02:04:10.930Z,13.40
2022-09-21T02:05:13.691Z,17.25
2022-09-21T02:06:18.171Z,17.55
2022-09-21T02:07:20.044Z,19.40
2022-09-21T02:08:22.220Z,16.38
2022-09-21T02:09:24.303Z,17.95
2022-09-21T02:10:42.187Z,19.75
2022-09-21T02:11:45.268Z,15.43
2022-09-21T02:12:48.745Z,15.48
2022-09-21T02:13:53.734Z,16.35
2022-09-21T02:15:03.468Z,14.85
2022-09-21T02:16:07.862Z,13.98
2022-09-21T02:17:56.878Z,16.67
2022-09-21T02:19:04.451Z,18.10
2022-09-21T02:20:17.587Z,13.73
2022-09-21T02:21:32.035Z,15.15
2022-09-21T02:22:48.507Z,15.60
2022-09-21T02:24:02.039Z,18.98
2022-09-21T02:25:42.318Z,14.27
2022-09-21T02:26:54.587Z,14.00
2022-09-21T02:28:02.959Z,14.77
2022-09-21T02:29:25.752Z,15.90
2022-09-21T02:30:28.009Z,17.98
2022-09-21T02:31:53.687Z,15.13
2022-09-21T02:33:00.263Z,14.40
2022-09-21T02:34:30.874Z,15.65
2022-09-21T02:35:36.222Z,19.10
2022-09-21T02:36:51.891Z,13.40
2022-09-21T02:38:14.751Z,15.95
2022-09-21T02:39:41.750Z,23.23
2022-09-21T02:40:47.581Z,19.88
2022-09-21T02:42:07.211Z,16.48
2022-09-21T02:43:34.958Z,13.45
2022-09-21T02:44:41.239Z,13.60
2022-09-21T02:45:51.582Z,13.80
2022-09-21T02:47:04.218Z,15.98
2022-09-21T02:48:12.019Z,13.95
2022-09-21T02:49:27.774Z,20.60
2022-09-21T02:50:40.176Z,19.55
2022-09-21T02:51:47.508Z,18.25
2022-09-21T02:52:50.761Z,18.05
2022-09-21T02:53:54.683Z,13.40
2022-09-21T02:55:04.187Z,14.57
2022-09-21T02:56:08.604Z,16.10
2022-09-21T02:57:13.006Z,21.75
2022-09-21T02:58:17.928Z,13.80
2022-09-21T02:59:21.526Z,19.05
2022-09-21T03:00:23.484Z,17.05
2022-09-21T03:01:27.204Z,17.20
2022-09-21T03:02:44.089Z,15.07
2022-09-21T03:03:45.767Z,15.80
2022-09-21T03:04:48.782Z,16.33
2022-09-21T03:05:53.612Z,15.52
2022-09-21T03:06:57.291Z,14.10
2022-09-21T03:07:59.838Z,15.30
2022-09-21T03:09:01.793Z,14.43
2022-09-21T03:10:05.109Z,22.83
2022-09-21T03:11:07.778Z,15.30
2022-09-21T03:12:09.817Z,16.98
2022-09-21T03:13:12.127Z,13.93
2022-09-21T03:14:14.184Z,15.43
2022-09-21T03:15:17.344Z,15.43
2022-09-21T03:16:19.389Z,16.85
2022-09-21T03:17:21.279Z,15.13
2022-09-21T03:18:23.256Z,15.10
2022-09-21T03:19:25.496Z,19.55
2022-09-21T03:20:27.187Z,15.75
2022-09-21T03:21:29.899Z,14.90
2022-09-21T03:22:31.576Z,14.32
2022-09-21T03:23:33.267Z,18.48
2022-09-21T03:24:47.122Z,17.88
2022-09-21T03:25:48.900Z,16.33
2022-09-21T03:26:50.583Z,15.70
2022-09-21T03:27:55.049Z,17.80
2022-09-21T03:28:56.810Z,16.35
2022-09-21T03:30:01.939Z,29.83
2022-09-21T03:31:04.602Z,22.52
2022-09-21T03:32:06.766Z,19.95
2022-09-21T03:33:08.744Z,22.23
2022-09-21T03:34:11.502Z,17.17
2022-09-21T03:35:13.836Z,21.02
2022-09-21T03:36:15.900Z,16.40
2022-09-21T03:37:17.894Z,14.10
2022-09-21T03:38:21.667Z,14.73
2022-09-21T03:39:26.026Z,18.85
2022-09-21T03:40:28.275Z,21.40
2022-09-21T03:41:29.971Z,16.45
2022-09-21T03:42:31.644Z,18.77
2022-09-21T03:43:33.517Z,15.90
2022-09-21T03:44:37.471Z,19.15
2022-09-21T03:45:40.949Z,28.08
2022-09-21T03:46:42.557Z,20.77
2022-09-21T03:47:44.348Z,18.38
2022-09-21T03:48:48.131Z,18.85
2022-09-21T03:49:49.982Z,16.33
2022-09-21T03:50:51.922Z,20.20
2022-09-21T03:51:53.581Z,19.38
2022-09-21T03:52:56.763Z,19.42
2022-09-21T03:53:58.480Z,17.52
2022-09-21T03:55:00.262Z,19.85
2022-09-21T03:56:02.003Z,18.80
2022-09-21T03:57:03.966Z,18.95
2022-09-21T03:58:06.126Z,15.05
2022-09-21T03:59:10.639Z,17.05
2022-09-21T04:00:16.314Z,17.42
2022-09-21T04:01:18.069Z,17.77
2022-09-21T04:02:20.090Z,16.70
2022-09-21T04:03:21.755Z,18.95
2022-09-21T04:04:23.439Z,14.98
2022-09-21T04:05:25.313Z,20.05
2022-09-21T04:06:27.015Z,19.02
2022-09-21T04:07:34.484Z,17.60
2022-09-21T04:08:36.385Z,18.00
2022-09-21T04:09:38.048Z,16.58
2022-09-21T04:10:42.127Z,14.90
2022-09-21T04:11:46.057Z,14.38
2022-09-21T04:12:48.107Z,14.55
2022-09-21T04:13:52.379Z,20.52
2022-09-21T04:14:54.082Z,16.15
2022-09-21T04:15:55.762Z,22.77
2022-09-21T04:16:57.937Z,16.45
2022-09-21T04:17:59.959Z,15.60
2022-09-21T04:19:01.800Z,14.75
2022-09-21T04:20:04.539Z,19.35
2022-09-21T04:21:06.481Z,15.23
2022-09-21T04:22:10.105Z,14.02
2022-09-21T04:23:11.794Z,14.85
2022-09-21T04:24:13.476Z,16.33
2022-09-21T04:25:15.319Z,14.80
2022-09-21T04:26:28.878Z,15.07
2022-09-21T04:27:31.503Z,14.18
2022-09-21T04:28:33.232Z,15.15
2022-09-21T04:29:35.266Z,14.80
2022-09-21T04:30:37.961Z,16.30
2022-09-21T04:31:40.562Z,20.35
2022-09-21T04:32:42.929Z,14.70
2022-09-21T04:33:47.484Z,17.63
2022-09-21T04:34:49.305Z,17.10
2022-09-21T04:35:57.204Z,17.38
2022-09-21T04:37:02.101Z,16.40
2022-09-21T04:38:04.375Z,14.75
2022-09-21T04:39:06.938Z,14.93
2022-09-21T04:40:09.455Z,17.60
2022-09-21T04:41:11.832Z,15.38
2022-09-21T04:42:13.509Z,16.45
2022-09-21T04:43:17.642Z,14.57
2022-09-21T04:44:21.294Z,13.57
2022-09-21T04:45:23.931Z,18.15
2022-09-21T04:46:25.710Z,13.57
2022-09-21T04:47:30.801Z,14.48
2022-09-21T04:48:32.513Z,16.45
2022-09-21T04:49:34.144Z,14.50
2022-09-21T04:50:38.248Z,15.07
2022-09-21T04:51:39.920Z,15.82
2022-09-21T04:52:41.633Z,20.02
2022-09-21T04:53:44.816Z,17.15
2022-09-21T04:54:47.760Z,19.77
2022-09-21T04:55:49.486Z,18.92
2022-09-21T04:56:51.407Z,16.63
2022-09-21T04:57:53.038Z,15.98
2022-09-21T04:58:55.094Z,22.35
2022-09-21T04:59:57.001Z,14.70
2022-09-21T05:00:58.718Z,13.75
2022-09-21T05:02:00.303Z,16.48
2022-09-21T05:03:01.905Z,15.85
2022-09-21T05:04:03.574Z,16.67
2022-09-21T05:05:05.663Z,18.08
2022-09-21T05:06:07.794Z,16.80
2022-09-21T05:07:09.421Z,14.27
2022-09-21T05:08:11.151Z,15.05
2022-09-21T05:09:31.274Z,17.17
2022-09-21T05:10:32.896Z,14.38
2022-09-21T05:11:34.642Z,16.30
2022-09-21T05:12:40.722Z,14.77
2022-09-21T05:13:43.554Z,19.92
2022-09-21T05:14:46.823Z,20.70
2022-09-21T05:15:50.233Z,16.60
2022-09-21T05:16:52.075Z,18.65
2022-09-21T05:17:53.952Z,16.25
2022-09-21T05:18:55.937Z,17.17
2022-09-21T05:19:57.928Z,18.80
2022-09-21T05:21:01.750Z,16.25
2022-09-21T05:22:03.456Z,16.15
2022-09-21T05:23:05.053Z,14.43
2022-09-21T05:24:06.892Z,14.45
2022-09-21T05:25:09.362Z,14.95
2022-09-21T05:26:11.073Z,17.83
2022-09-21T05:27:13.204Z,17.75
2022-09-21T05:28:15.530Z,15.15
2022-09-21T05:29:17.518Z,20.80
2022-09-21T05:30:19.746Z,15.45
2022-09-21T05:31:39.879Z,21.13
2022-09-21T05:32:54.562Z,23.55
2022-09-21T05:34:07.552Z,20.45
2022-09-21T05:35:37.455Z,28.08
2022-09-21T05:36:51.208Z,19.88
2022-09-21T05:37:59.598Z,14.68
2022-09-21T05:39:01.494Z,18.17
2022-09-21T05:40:04.350Z,19.10
2022-09-21T05:41:06.476Z,18.92
2022-09-21T05:42:12.138Z,23.67
2022-09-21T05:43:14.486Z,17.60
2022-09-21T05:44:16.591Z,20.20
2022-09-21T05:45:21.058Z,16.50
2022-09-21T05:47:04.348Z,14.65
2022-09-21T05:48:33.390Z,18.27
2022-09-21T05:49:46.149Z,19.67
2022-09-21T05:51:41.576Z,17.58
2022-09-21T05:52:56.698Z,20.08
2022-09-21T05:54:01.310Z,20.88
2022-09-21T05:55:35.511Z,20.13
2022-09-21T05:56:49.533Z,21.92
2022-09-21T05:58:11.534Z,23.65
2022-09-21T05:59:19.326Z,16.15
2022-09-21T06:00:22.926Z,16.60
2022-09-21T06:01:42.384Z,17.60
2022-09-21T06:03:05.178Z,22.15
2022-09-21T06:04:12.241Z,17.02
2022-09-21T06:05:15.427Z,16.23
2022-09-21T06:06:19.276Z,23.60
2022-09-21T06:07:21.206Z,22.52
2022-09-21T06:08:23.617Z,20.60
2022-09-21T06:09:26.764Z,15.77
2022-09-21T06:10:34.271Z,18.92
2022-09-21T06:11:36.593Z,14.77
2022-09-21T06:12:38.382Z,24.88
2022-09-21T06:13:41.430Z,21.05
2022-09-21T06:14:44.133Z,17.48
2022-09-21T06:15:46.113Z,26.42
2022-09-21T06:16:47.836Z,19.10
2022-09-21T06:17:49.488Z,23.05
2022-09-21T06:18:51.143Z,15.82
2022-09-21T06:19:53.463Z,25.48
2022-09-21T06:20:55.136Z,19.08
2022-09-21T06:21:56.736Z,15.63
2022-09-21T06:23:06.506Z,17.52
2022-09-21T06:24:08.319Z,26.48
2022-09-21T06:25:10.759Z,20.65
2022-09-21T06:26:12.395Z,22.73
2022-09-21T06:27:14.057Z,23.80
2022-09-21T06:28:15.854Z,17.52
2022-09-21T06:29:23.350Z,22.80
2022-09-21T06:30:25.109Z,20.30
2022-09-21T06:31:27.684Z,22.70
2022-09-21T06:32:29.365Z,18.90
2022-09-21T06:33:31.329Z,17.55
2022-09-21T06:34:32.986Z,18.77
2022-09-21T06:35:35.867Z,36.90
2022-09-21T06:36:37.480Z,19.30
2022-09-21T06:37:40.131Z,17.90
2022-09-21T06:38:41.705Z,17.83
2022-09-21T06:39:43.315Z,18.95
2022-09-21T06:40:44.958Z,22.45
2022-09-21T06:41:46.692Z,18.98
2022-09-21T06:42:48.318Z,18.77
2022-09-21T06:43:54.081Z,21.33
2022-09-21T06:44:55.721Z,19.25
2022-09-21T06:46:00.425Z,16.90
2022-09-21T06:47:02.098Z,17.90
2022-09-21T06:48:04.064Z,22.65
2022-09-21T06:49:05.770Z,20.25
2022-09-21T06:50:07.857Z,16.10
2022-09-21T06:51:10.140Z,19.83
2022-09-21T06:52:11.757Z,19.88
2022-09-21T06:53:14.691Z,20.92
2022-09-21T06:54:17.468Z,19.75
2022-09-21T06:55:19.230Z,17.70
2022-09-21T06:56:21.085Z,18.65
2022-09-21T06:57:23.787Z,21.02
2022-09-21T06:58:25.385Z,17.25
2022-09-21T06:59:27.004Z,17.00
2022-09-21T07:00:29.080Z,18.27
2022-09-21T07:01:31.041Z,17.88
2022-09-21T07:02:32.831Z,17.88
2022-09-21T07:03:35.010Z,17.63
2022-09-21T07:04:37.183Z,15.45
2022-09-21T07:05:39.489Z,15.85
2022-09-21T07:06:41.232Z,16.83
2022-09-21T07:07:42.853Z,18.02
2022-09-21T07:10:13.186Z,19.85
2022-09-21T07:11:16.424Z,18.15
2022-09-21T07:12:18.917Z,16.65
2022-09-21T07:13:20.551Z,17.83
2022-09-21T07:14:22.547Z,18.58
2022-09-21T07:15:29.029Z,19.98
2022-09-21T07:16:31.127Z,17.73
2022-09-21T07:17:37.880Z,19.23
2022-09-21T07:18:44.239Z,15.43
2022-09-21T07:19:46.245Z,23.15
2022-09-21T07:20:51.289Z,17.92
2022-09-21T07:21:56.105Z,16.52
2022-09-21T07:22:57.690Z,20.58
2022-09-21T07:24:00.334Z,18.75
2022-09-21T07:25:02.812Z,21.23
2022-09-21T07:26:10.827Z,19.90
2022-09-21T07:27:12.909Z,17.40
2022-09-21T07:28:14.975Z,22.15
2022-09-21T07:29:16.664Z,19.05
2022-09-21T07:30:18.364Z,24.02
2022-09-21T07:31:20.761Z,21.13
2022-09-21T07:32:22.870Z,17.88
2022-09-21T07:33:26.035Z,16.75
2022-09-21T07:34:27.739Z,17.40
2022-09-21T07:35:29.505Z,18.00
2022-09-21T07:36:31.259Z,18.55
2022-09-21T07:37:32.970Z,16.65
2022-09-21T07:38:39.790Z,25.33
2022-09-21T07:39:41.611Z,19.92
2022-09-21T07:40:43.291Z,17.92
2022-09-21T07:41:45.070Z,23.33
2022-09-21T07:42:46.760Z,21.60
2022-09-21T07:43:48.556Z,21.83
2022-09-21T07:44:51.073Z,23.95
2022-09-21T07:45:56.727Z,17.88
2022-09-21T07:46:58.466Z,17.10
2022-09-21T07:48:06.993Z,19.63
2022-09-21T07:49:08.878Z,20.35
2022-09-21T07:50:10.615Z,18.05
2022-09-21T07:51:15.590Z,23.88
2022-09-21T07:52:17.792Z,21.30
2022-09-21T07:53:19.416Z,17.52
2022-09-21T07:54:22.359Z,16.00
2022-09-21T07:55:24.259Z,16.60
2022-09-21T07:56:26.115Z,17.88
2022-09-21T07:57:47.085Z,17.98
2022-09-21T07:59:07.191Z,21.67
2022-09-21T08:00:10.533Z,15.95
2022-09-21T08:01:13.503Z,26.35
2022-09-21T08:02:15.330Z,15.95
2022-09-21T08:03:17.166Z,16.25
2022-09-21T08:04:18.986Z,17.52
2022-09-21T08:05:20.976Z,16.60
2022-09-21T08:06:24.773Z,17.00
2022-09-21T08:07:28.539Z,18.52
2022-09-21T08:08:30.441Z,15.10
2022-09-21T08:09:32.196Z,16.38
2022-09-21T08:10:35.419Z,22.17
2022-09-21T08:11:40.103Z,16.85
2022-09-21T08:12:44.228Z,19.92
2022-09-21T08:13:48.569Z,17.00
2022-09-21T08:14:50.229Z,16.25
2022-09-21T08:15:58.656Z,14.45
2022-09-21T08:17:00.364Z,19.85
2022-09-21T08:18:07.372Z,15.95
2022-09-21T08:19:09.184Z,18.15
2022-09-21T08:20:12.778Z,15.48
2022-09-21T08:21:14.605Z,15.95
2022-09-21T08:22:16.235Z,17.08
2022-09-21T08:23:18.835Z,19.42
2022-09-21T08:24:21.043Z,19.45
2022-09-21T08:25:22.925Z,14.93
2022-09-21T08:26:24.877Z,15.80
2022-09-21T08:27:27.984Z,15.43
2022-09-21T08:28:31.244Z,20.33
2022-09-21T08:29:33.061Z,21.75
2022-09-21T08:30:34.913Z,17.38
2022-09-21T08:31:36.868Z,18.05
2022-09-21T08:32:50.999Z,14.15
2022-09-21T08:33:54.980Z,15.07
2022-09-21T08:34:56.830Z,16.27
2022-09-21T08:36:03.365Z,15.50
2022-09-21T08:37:05.242Z,14.25
2022-09-21T08:38:07.073Z,15.20
2022-09-21T08:39:09.472Z,14.77
2022-09-21T08:40:12.271Z,14.32
2022-09-21T08:41:23.350Z,16.45
2022-09-21T08:42:30.853Z,18.25
2022-09-21T08:43:44.586Z,14.00
2022-09-21T08:44:57.507Z,15.68
2022-09-21T08:46:01.042Z,14.57
2022-09-21T08:47:13.579Z,13.65
2022-09-21T08:48:28.297Z,13.57
2022-09-21T08:49:36.308Z,12.30
2022-09-21T08:51:12.660Z,14.27
2022-09-21T08:52:17.296Z,13.50
2022-09-21T08:53:25.610Z,14.57
2022-09-21T08:54:56.940Z,13.07
2022-09-21T08:55:58.926Z,14.05
2022-09-21T08:57:05.538Z,12.52
2022-09-21T08:58:23.443Z,12.93
2022-09-21T08:59:25.172Z,12.43
2022-09-21T09:00:29.694Z,12.10
2022-09-21T09:01:58.716Z,12.77
2022-09-21T09:03:16.539Z,13.32
2022-09-21T09:04:46.300Z,12.25
2022-09-21T09:05:55.112Z,15.55
2022-09-21T09:07:21.322Z,22.08
2022-09-21T09:08:39.050Z,14.05
2022-09-21T09:09:51.558Z,12.05
2022-09-21T09:10:53.525Z,13.32
2022-09-21T09:12:15.513Z,11.65
2022-09-21T09:13:29.801Z,13.68
2022-09-21T09:14:48.481Z,11.77
2022-09-21T09:15:56.279Z,13.90
2022-09-21T09:17:27.225Z,13.02
2022-09-21T09:18:43.933Z,12.18
2022-09-21T09:19:57.983Z,13.35
2022-09-21T09:21:07.337Z,13.65
2022-09-21T09:22:13.466Z,11.85
2022-09-21T09:23:16.122Z,11.60
2022-09-21T09:24:49.282Z,12.85
2022-09-21T09:25:54.669Z,12.95
2022-09-21T09:27:07.416Z,12.48
2022-09-21T09:28:27.925Z,12.43
2022-09-21T09:29:38.072Z,15.20
2022-09-21T09:30:40.213Z,12.00
2022-09-21T09:31:42.783Z,13.27
2022-09-21T09:33:02.603Z,11.98
2022-09-21T09:34:18.079Z,12.75
2022-09-21T09:35:30.655Z,15.10
2022-09-21T09:36:56.898Z,14.02
2022-09-21T09:38:16.975Z,12.60
2022-09-21T09:39:18.653Z,11.50
2022-09-21T09:40:44.251Z,11.88
2022-09-21T09:42:07.727Z,11.48
2022-09-21T09:43:26.991Z,11.85
2022-09-21T09:44:41.271Z,14.70
2022-09-21T09:46:06.177Z,13.85
2022-09-21T09:48:02.508Z,11.70
2022-09-21T09:49:26.475Z,12.07
2022-09-21T09:50:35.746Z,12.30
2022-09-21T09:51:39.872Z,11.70
2022-09-21T09:52:42.855Z,12.70
2022-09-21T09:53:44.828Z,11.55
2022-09-21T09:54:47.068Z,11.32
2022-09-21T09:56:03.626Z,11.95
2022-09-21T09:57:07.352Z,12.40
2022-09-21T09:58:20.033Z,12.30
2022-09-21T09:59:37.772Z,12.63
2022-09-21T10:00:39.953Z,14.63
2022-09-21T10:02:04.706Z,11.60
2022-09-21T10:03:17.116Z,12.73
2022-09-21T10:04:21.009Z,11.60
2022-09-21T10:05:28.740Z,12.20
2022-09-21T10:06:33.278Z,11.25
2022-09-21T10:07:38.116Z,11.70
2022-09-21T10:08:43.445Z,11.82
2022-09-21T10:09:45.214Z,12.05
2022-09-21T10:10:56.462Z,12.00
2022-09-21T10:12:01.632Z,11.63
2022-09-21T10:13:25.600Z,11.35
2022-09-21T10:14:31.365Z,11.43
2022-09-21T10:15:33.507Z,11.57
2022-09-21T10:16:41.034Z,12.35
2022-09-21T10:17:45.999Z,12.77
2022-09-21T10:19:05.882Z,12.43
2022-09-21T10:20:15.524Z,13.98
2022-09-21T10:21:24.219Z,11.45
2022-09-21T10:22:29.485Z,12.10
2022-09-21T10:23:33.830Z,13.13
2022-09-21T10:24:40.803Z,11.77
2022-09-21T10:25:44.547Z,12.13
2022-09-21T10:27:03.350Z,12.05
2022-09-21T10:28:06.040Z,11.82
2022-09-21T10:29:23.279Z,11.55
2022-09-21T10:30:38.717Z,13.18
2022-09-21T10:32:04.840Z,11.30
2022-09-21T10:33:20.139Z,12.63
2022-09-21T10:34:24.087Z,11.43
2022-09-21T10:35:27.129Z,13.35
2022-09-21T10:36:37.402Z,12.07
2022-09-21T10:37:44.178Z,11.70
2022-09-21T10:38:46.021Z,12.32
2022-09-21T10:39:48.075Z,11.63
2022-09-21T10:40:50.560Z,12.00
2022-09-21T10:41:57.184Z,12.02
2022-09-21T10:43:00.488Z,11.70
2022-09-21T10:44:02.187Z,12.68
2022-09-21T10:45:27.941Z,13.18
2022-09-21T10:46:34.985Z,11.90
2022-09-21T10:47:44.279Z,12.20
2022-09-21T10:48:47.954Z,12.25
2022-09-21T10:49:55.322Z,13.13
2022-09-21T10:50:57.751Z,12.32
2022-09-21T10:52:01.853Z,13.30
2022-09-21T10:53:09.495Z,12.80
2022-09-21T10:54:23.397Z,12.60
2022-09-21T10:55:33.262Z,13.98
2022-09-21T10:56:36.389Z,13.75
2022-09-21T10:57:41.349Z,14.55
2022-09-21T10:59:12.645Z,12.93
2022-09-21T11:00:31.875Z,13.07
2022-09-21T11:01:33.872Z,13.10
2022-09-21T11:02:41.335Z,13.35
2022-09-21T11:03:58.544Z,13.77
2022-09-21T11:05:26.802Z,11.70
2022-09-21T11:06:45.041Z,13.00
2022-09-21T11:08:03.109Z,11.85
2022-09-21T11:09:20.401Z,12.20
2022-09-21T11:10:34.158Z,12.80
2022-09-21T11:11:55.030Z,12.50
2022-09-21T11:13:05.919Z,11.90
2022-09-21T11:14:12.965Z,12.15
2022-09-21T11:15:40.572Z,11.50
2022-09-21T11:16:59.854Z,12.10
2022-09-21T11:18:29.693Z,11.48
2022-09-21T11:19:54.278Z,17.13
2022-09-21T11:21:15.363Z,19.25
2022-09-21T11:22:35.743Z,12.40
2022-09-21T11:23:50.064Z,11.90
2022-09-21T11:25:32.788Z,12.80
2022-09-21T11:26:59.190Z,14.15
2022-09-21T11:28:28.089Z,15.30
2022-09-21T11:29:38.868Z,13.10
2022-09-21T11:31:03.625Z,12.32
2022-09-21T11:32:27.229Z,11.95
2022-09-21T11:34:02.920Z,11.55
2022-09-21T11:35:27.101Z,12.75
2022-09-21T11:37:11.234Z,11.90
2022-09-21T11:38:25.021Z,11.45
2022-09-21T11:39:48.060Z,11.48
2022-09-21T11:41:01.819Z,12.77
2022-09-21T11:42:11.085Z,11.88
2022-09-21T11:43:27.754Z,14.48
2022-09-21T11:44:53.282Z,14.88
2022-09-21T11:46:38.775Z,13.18
2022-09-21T11:48:22.207Z,11.40
2022-09-21T11:49:33.440Z,13.00
2022-09-21T11:50:59.355Z,11.52
2022-09-21T11:52:06.606Z,11.75
2022-09-21T11:53:37.099Z,11.70
2022-09-21T11:55:00.890Z,11.38
2022-09-21T11:56:02.781Z,12.88
2022-09-21T11:57:31.082Z,13.10
2022-09-21T11:58:52.595Z,11.70
2022-09-21T12:00:22.889Z,11.35
2022-09-21T12:01:36.669Z,11.70
2022-09-21T12:03:16.641Z,11.50
2022-09-21T12:04:34.543Z,11.65
2022-09-21T12:05:36.159Z,12.10
2022-09-21T12:06:55.934Z,12.10
2022-09-21T12:08:28.246Z,13.50
2022-09-21T12:09:47.047Z,11.43
2022-09-21T12:11:16.982Z,11.38
2022-09-21T12:12:39.783Z,14.30
2022-09-21T12:14:01.975Z,11.55
2022-09-21T12:15:13.059Z,11.50
2022-09-21T12:16:26.881Z,11.65
2022-09-21T12:17:43.655Z,13.75
2022-09-21T12:19:16.834Z,12.70
2022-09-21T12:20:45.158Z,12.70
2022-09-21T12:21:50.426Z,13.35
2022-09-21T12:23:03.489Z,12.07
2022-09-21T12:24:16.091Z,11.27
2022-09-21T12:25:23.734Z,11.32
2022-09-21T12:26:57.180Z,11.82
2022-09-21T12:28:11.163Z,11.48
2022-09-21T12:29:18.773Z,13.50
2022-09-21T12:30:23.315Z,11.88
2022-09-21T12:31:38.265Z,11.70
2022-09-21T12:32:47.466Z,12.55
2022-09-21T12:33:56.203Z,12.50
2022-09-21T12:35:03.055Z,11.70
2022-09-21T12:36:07.806Z,11.57
2022-09-21T12:37:28.273Z,11.60
2022-09-21T12:38:44.339Z,11.55
2022-09-21T12:40:13.237Z,12.55
2022-09-21T12:41:32.175Z,11.50
2022-09-21T12:42:56.817Z,12.02
2022-09-21T12:44:20.499Z,11.75
2022-09-21T12:45:31.287Z,11.25
2022-09-21T12:46:44.852Z,13.18
2022-09-21T12:48:02.729Z,11.43
2022-09-21T12:49:22.908Z,11.50
2022-09-21T12:50:48.391Z,13.13
2022-09-21T12:51:55.136Z,11.80
2022-09-21T12:52:57.943Z,12.20
2022-09-21T12:54:11.766Z,12.60
2022-09-21T12:55:53.590Z,11.70
2022-09-21T12:57:38.207Z,11.43
2022-09-21T12:58:51.735Z,11.32
2022-09-21T13:00:07.472Z,11.27
2022-09-21T13:01:33.306Z,11.88
2022-09-21T13:02:59.967Z,11.32
2022-09-21T13:04:34.457Z,11.38
2022-09-21T13:06:15.769Z,12.93
2022-09-21T13:07:47.161Z,12.00
2022-09-21T13:09:58.001Z,11.90
2022-09-21T13:11:01.400Z,11.23
2022-09-21T13:12:10.309Z,12.75
2022-09-21T13:13:23.413Z,13.80
2022-09-21T13:14:29.291Z,11.70
2022-09-21T13:15:33.334Z,11.80
2022-09-21T13:16:41.421Z,11.25
2022-09-21T13:17:43.238Z,11.80
2022-09-21T13:18:46.339Z,11.50
2022-09-21T13:20:07.261Z,13.65
2022-09-21T13:21:22.338Z,11.38
2022-09-21T13:22:27.260Z,12.05
2022-09-21T13:23:42.265Z,11.40
2022-09-21T13:24:48.303Z,11.18
2022-09-21T13:26:06.163Z,11.32
2022-09-21T13:27:13.650Z,12.27
2022-09-21T13:28:17.268Z,12.10
2022-09-21T13:29:22.692Z,13.88
2022-09-21T13:30:38.516Z,11.57
2022-09-21T13:32:05.961Z,11.60
2022-09-21T13:33:23.788Z,12.30
2022-09-21T13:34:44.036Z,11.55
2022-09-21T13:35:50.110Z,13.57
2022-09-21T13:37:19.018Z,11.32
2022-09-21T13:38:41.182Z,11.50
2022-09-21T13:40:03.550Z,11.65
2022-09-21T13:41:45.477Z,11.85
2022-09-21T13:42:49.306Z,11.95
2022-09-21T13:43:59.760Z,11.38
2022-09-21T13:45:18.388Z,11.82
2022-09-21T13:46:35.460Z,11.35
2022-09-21T13:47:45.643Z,12.10
2022-09-21T13:48:53.550Z,13.88
2022-09-21T13:50:00.319Z,11.90
2022-09-21T13:51:08.197Z,12.20
2022-09-21T13:52:15.945Z,12.40
2022-09-21T13:53:25.430Z,12.30
2022-09-21T13:54:37.014Z,11.73
2022-09-21T13:56:16.751Z,11.90
2022-09-21T13:57:24.007Z,13.18
2022-09-21T13:58:29.458Z,12.10
2022-09-21T13:59:33.504Z,11.40
2022-09-21T14:00:41.837Z,12.73
2022-09-21T14:01:47.821Z,11.45
2022-09-21T14:02:54.942Z,11.98
2022-09-21T14:04:01.471Z,11.52
2022-09-21T14:05:43.607Z,11.80
2022-09-21T14:06:49.136Z,11.95
2022-09-21T14:07:57.356Z,12.00
2022-09-21T14:09:02.564Z,15.32
2022-09-21T14:10:08.193Z,12.02
2022-09-21T14:11:16.612Z,11.35
2022-09-21T14:12:24.191Z,11.80
2022-09-21T14:13:35.290Z,11.68
2022-09-21T14:14:39.018Z,11.80
2022-09-21T14:15:40.751Z,12.27
2022-09-21T14:16:44.641Z,11.68
2022-09-21T14:18:17.059Z,11.30
2022-09-21T14:19:18.720Z,12.00
2022-09-21T14:20:37.202Z,13.50
2022-09-21T14:22:08.510Z,12.40
2022-09-21T14:23:25.356Z,11.70
2022-09-21T14:24:42.172Z,11.85
2022-09-21T14:25:55.802Z,15.30
2022-09-21T14:27:25.217Z,12.00
2022-09-21T14:28:41.752Z,12.30
2022-09-21T14:29:55.366Z,12.23
2022-09-21T14:31:02.651Z,11.95
2022-09-21T14:32:11.786Z,11.70
2022-09-21T14:33:26.178Z,11.80
2022-09-21T14:34:34.559Z,14.95
2022-09-21T14:35:45.691Z,11.25
2022-09-21T14:36:50.564Z,11.95
2022-09-21T14:38:03.653Z,11.82
2022-09-21T14:39:14.563Z,11.68
2022-09-21T14:40:26.437Z,11.35
2022-09-21T14:41:43.580Z,12.32
2022-09-21T14:42:46.494Z,11.90
2022-09-21T14:43:54.210Z,11.70
2022-09-21T14:45:00.639Z,12.45
2022-09-21T14:46:20.738Z,11.80
2022-09-21T14:47:25.414Z,12.20
2022-09-21T14:48:55.798Z,12.75
2022-09-21T14:50:17.799Z,12.65
2022-09-21T14:51:38.251Z,11.50
2022-09-21T14:52:58.984Z,11.35
2022-09-21T14:54:22.138Z,11.43
2022-09-21T14:55:27.230Z,12.30